createdAt,value
2018-11-07T00:00:37.683Z,43.03
2018-11-07T00:03:08.182Z,41.10
2018-11-07T00:05:37.495Z,45.30
2018-11-07T00:08:06.828Z,51.20
2018-11-07T00:10:51.183Z,42.73
2018-11-07T00:13:20.458Z,42.80
2018-11-07T00:15:49.965Z,42.47
2018-11-07T00:18:19.461Z,36.43
2018-11-07T00:20:48.738Z,38.13
2018-11-07T00:23:18.257Z,40.58
2018-11-07T00:25:47.548Z,40.10
2018-11-07T00:28:17.106Z,38.35
2018-11-07T00:30:46.374Z,37.03
2018-11-07T00:33:15.913Z,39.17
2018-11-07T00:35:45.189Z,40.57
2018-11-07T00:38:14.475Z,42.75
2018-11-07T00:40:44.042Z,40.35
2018-11-07T00:43:13.322Z,39.00
2018-11-07T00:45:42.615Z,40.03
2018-11-07T00:48:12.091Z,40.83
2018-11-07T00:50:41.378Z,37.60
2018-11-07T00:53:11.146Z,35.50
2018-11-07T00:55:40.421Z,31.93
2018-11-07T00:58:09.715Z,28.47
2018-11-07T01:00:39.433Z,30.33
2018-11-07T01:03:09.088Z,27.00
2018-11-07T01:05:38.545Z,26.43
2018-11-07T01:08:08.758Z,24.80
2018-11-07T01:10:40.070Z,29.25
2018-11-07T01:13:09.730Z,27.60
2018-11-07T01:15:39.109Z,35.23
2018-11-07T01:18:08.414Z,27.87
2018-11-07T01:20:38.002Z,30.82
2018-11-07T01:23:08.397Z,31.20
2018-11-07T01:25:38.803Z,34.70
2018-11-07T01:28:08.683Z,27.27
2018-11-07T01:30:38.115Z,24.50
2018-11-07T01:33:08.081Z,21.48
2018-11-07T01:35:37.371Z,21.63
2018-11-07T01:38:06.307Z,21.43
2018-11-07T01:40:36.134Z,25.30
2018-11-07T01:43:05.414Z,24.70
2018-11-07T01:45:34.703Z,23.67
2018-11-07T01:48:03.881Z,23.43
2018-11-07T01:50:33.143Z,25.83
2018-11-07T01:53:02.424Z,36.83
2018-11-07T01:55:31.354Z,35.37
2018-11-07T01:58:00.632Z,37.30
2018-11-07T02:00:29.897Z,37.70
2018-11-07T02:02:59.205Z,32.47
2018-11-07T02:05:28.787Z,27.80
2018-11-07T02:07:58.366Z,27.43
2018-11-07T02:10:27.650Z,25.77
2018-11-07T02:12:57.173Z,30.20
2018-11-07T02:15:26.654Z,28.60
2018-11-07T02:17:56.209Z,30.10
2018-11-07T02:20:26.249Z,32.00
2018-11-07T02:22:55.518Z,36.60
2018-11-07T02:25:24.785Z,39.23
2018-11-07T02:27:54.620Z,41.10
2018-11-07T02:30:24.179Z,37.85
2018-11-07T02:32:53.658Z,31.80
2018-11-07T02:35:23.814Z,35.52
2018-11-07T02:37:53.378Z,32.30
2018-11-07T02:40:22.650Z,28.10
2018-11-07T02:42:52.225Z,30.68
2018-11-07T02:45:21.506Z,28.40
2018-11-07T02:47:50.788Z,29.73
2018-11-07T02:50:20.528Z,26.30
2018-11-07T02:52:49.793Z,26.00
2018-11-07T02:55:19.367Z,30.00
2018-11-07T02:57:48.638Z,28.20
2018-11-07T03:00:18.570Z,26.95
2018-11-07T03:02:48.189Z,26.20
2018-11-07T03:05:17.724Z,34.70
2018-11-07T03:07:47.027Z,23.80
2018-11-07T03:10:17.397Z,24.55
2018-11-07T03:12:47.241Z,29.97
2018-11-07T03:15:16.846Z,24.17
2018-11-07T03:17:46.343Z,32.67
2018-11-07T03:20:15.910Z,30.07
2018-11-07T03:22:45.506Z,32.90
2018-11-07T03:25:14.795Z,33.30
2018-11-07T03:27:44.401Z,32.37
2018-11-07T03:30:13.952Z,30.23
2018-11-07T03:32:43.438Z,25.70
2018-11-07T03:35:12.654Z,24.32
2018-11-07T03:37:41.925Z,24.53
2018-11-07T03:40:11.489Z,26.33
2018-11-07T03:42:40.992Z,25.20
2018-11-07T03:45:09.981Z,23.90
2018-11-07T03:47:39.446Z,25.70
2018-11-07T03:50:08.554Z,22.80
2018-11-07T03:52:37.839Z,20.50
2018-11-07T03:55:08.480Z,23.90
2018-11-07T03:57:37.966Z,24.97
2018-11-07T04:00:08.025Z,24.52
2018-11-07T04:02:49.790Z,22.15
2018-11-07T04:05:25.454Z,23.45
2018-11-07T04:07:54.941Z,23.43
2018-11-07T04:10:24.516Z,30.68
2018-11-07T04:12:53.793Z,22.87
2018-11-07T04:15:23.334Z,27.55
2018-11-07T04:17:52.593Z,24.30
2018-11-07T04:20:21.875Z,23.75
2018-11-07T04:22:51.153Z,24.90
2018-11-07T04:33:06.026Z,23.70
2018-11-07T04:35:35.599Z,27.97
2018-11-07T04:38:04.174Z,25.37
2018-11-07T04:40:33.641Z,26.13
2018-11-07T04:43:02.918Z,27.90
2018-11-07T04:45:32.474Z,26.57
2018-11-07T04:48:01.741Z,24.83
2018-11-07T04:50:31.021Z,22.87
2018-11-07T04:53:00.326Z,24.77
2018-11-07T04:55:29.718Z,21.70
2018-11-07T04:57:58.989Z,25.60
2018-11-07T05:00:28.214Z,24.70
2018-11-07T05:02:57.612Z,25.80
2018-11-07T05:05:26.767Z,25.03
2018-11-07T05:07:56.235Z,24.00
2018-11-07T05:10:25.734Z,28.77
2018-11-07T05:12:54.707Z,31.80
2018-11-07T05:15:24.194Z,24.60
2018-11-07T05:17:53.601Z,23.27
2018-11-07T05:20:23.158Z,26.57
2018-11-07T05:22:52.741Z,27.27
2018-11-07T05:25:22.010Z,24.87
2018-11-07T05:27:51.585Z,22.17
2018-11-07T05:30:21.005Z,21.97
2018-11-07T05:32:51.926Z,22.00
2018-11-07T05:35:21.619Z,24.35
2018-11-07T05:37:51.093Z,19.60
2018-11-07T05:40:20.965Z,20.50
2018-11-07T05:42:50.245Z,18.00
2018-11-07T05:45:19.811Z,21.17
2018-11-07T05:47:49.286Z,19.17
2018-11-07T05:50:19.403Z,16.52
2018-11-07T05:52:48.886Z,19.30
2018-11-07T05:55:18.254Z,17.27
2018-11-07T05:57:47.813Z,19.90
2018-11-07T06:00:17.094Z,19.40
2018-11-07T06:02:46.669Z,17.40
2018-11-07T06:05:16.258Z,16.97
2018-11-07T06:07:45.880Z,17.30
2018-11-07T06:10:15.150Z,18.33
2018-11-07T06:12:44.726Z,17.42
2018-11-07T06:15:13.994Z,20.40
2018-11-07T06:17:43.291Z,19.33
2018-11-07T06:20:13.026Z,17.67
2018-11-07T06:22:42.290Z,18.43
2018-11-07T06:25:11.950Z,20.10
2018-11-07T06:27:41.220Z,21.30
2018-11-07T06:30:11.069Z,22.00
2018-11-07T06:32:40.341Z,20.93
2018-11-07T06:35:09.334Z,20.50
2018-11-07T06:37:38.903Z,21.70
2018-11-07T06:40:09.002Z,23.65
2018-11-07T06:42:37.933Z,21.50
2018-11-07T06:45:06.610Z,21.20
2018-11-07T06:47:35.837Z,20.97
2018-11-07T06:50:04.442Z,23.70
2018-11-07T06:52:33.984Z,25.50
2018-11-07T06:55:03.295Z,19.70
2018-11-07T06:57:33.079Z,21.93
2018-11-07T07:00:02.378Z,19.10
2018-11-07T07:02:31.865Z,20.13
2018-11-07T07:05:01.622Z,23.17
2018-11-07T07:07:31.066Z,22.57
2018-11-07T07:10:00.339Z,20.73
2018-11-07T07:12:29.931Z,17.27
2018-11-07T07:14:59.129Z,15.37
2018-11-07T07:17:28.464Z,14.80
2018-11-07T07:19:58.142Z,16.83
2018-11-07T07:22:27.410Z,15.27
2018-11-07T07:24:56.994Z,12.63
2018-11-07T07:27:26.266Z,15.13
2018-11-07T07:29:56.212Z,12.60
2018-11-07T07:32:25.635Z,15.35
2018-11-07T07:34:55.205Z,15.93
2018-11-07T07:37:24.494Z,12.73
2018-11-07T07:39:53.950Z,12.27
2018-11-07T07:42:23.683Z,11.00
2018-11-07T07:44:53.230Z,11.33
2018-11-07T07:47:23.307Z,11.70
2018-11-07T07:49:53.322Z,13.47
2018-11-07T07:52:22.388Z,10.70
2018-11-07T07:54:52.056Z,11.07
2018-11-07T07:57:21.093Z,10.33
2018-11-07T07:59:50.358Z,9.73
2018-11-07T08:02:19.350Z,9.38
2018-11-07T08:04:49.100Z,10.03
2018-11-07T08:07:18.383Z,10.40
2018-11-07T08:09:47.934Z,9.70
2018-11-07T08:12:17.314Z,12.10
2018-11-07T08:14:46.549Z,9.48
2018-11-07T08:17:16.277Z,9.10
2018-11-07T08:19:45.545Z,8.33
2018-11-07T08:22:15.102Z,8.43
2018-11-07T08:24:44.043Z,8.03
2018-11-07T08:27:12.986Z,8.23
2018-11-07T08:29:42.246Z,10.43
2018-11-07T08:32:11.530Z,8.57
2018-11-07T08:34:41.114Z,7.75
2018-11-07T08:37:10.563Z,7.63
2018-11-07T08:39:40.122Z,7.60
2018-11-07T08:42:09.966Z,8.30
2018-11-07T08:44:39.380Z,9.30
2018-11-07T08:47:10.630Z,7.62
2018-11-07T08:49:40.465Z,10.20
2018-11-07T08:52:09.694Z,7.70
2018-11-07T08:54:38.989Z,7.45
2018-11-07T08:57:09.226Z,10.13
2018-11-07T08:59:38.209Z,7.30
2018-11-07T09:02:07.512Z,7.50
2018-11-07T09:04:37.257Z,8.40
2018-11-07T09:07:06.209Z,7.47
2018-11-07T09:09:35.158Z,8.43
2018-11-07T09:12:03.940Z,7.70
2018-11-07T09:14:33.361Z,7.30
2018-11-07T09:17:02.619Z,8.03
2018-11-07T09:19:32.706Z,7.10
2018-11-07T09:22:02.257Z,8.70
2018-11-07T09:24:31.556Z,7.10
2018-11-07T09:27:01.477Z,6.50
2018-11-07T09:29:30.739Z,6.93
2018-11-07T09:32:00.043Z,6.20
2018-11-07T09:34:29.518Z,6.47
2018-11-07T09:36:58.790Z,6.50
2018-11-07T09:39:28.547Z,5.90
2018-11-07T09:41:58.310Z,6.00
2018-11-07T09:44:27.578Z,6.63
2018-11-07T09:46:56.494Z,5.60
2018-11-07T09:49:25.761Z,5.73
2018-11-07T09:51:55.242Z,6.63
2018-11-07T09:54:24.349Z,5.47
2018-11-07T09:56:53.703Z,6.03
2018-11-07T09:59:23.563Z,5.08
2018-11-07T10:01:52.697Z,5.20
2018-11-07T10:04:22.444Z,3.67
2018-11-07T10:06:51.709Z,3.73
2018-11-07T10:09:21.274Z,3.65
2018-11-07T10:11:50.538Z,4.23
2018-11-07T10:14:19.803Z,3.60
2018-11-07T10:16:49.369Z,5.05
2018-11-07T10:19:18.913Z,3.30
2018-11-07T10:21:48.346Z,3.40
2018-11-07T10:24:17.650Z,3.67
2018-11-07T10:26:46.669Z,3.80
2018-11-07T10:29:16.858Z,4.07
2018-11-07T10:31:45.874Z,4.50
2018-11-07T10:34:15.437Z,4.50
2018-11-07T10:36:44.703Z,3.40
2018-11-07T10:39:13.934Z,3.80
2018-11-07T10:41:43.631Z,4.00
2018-11-07T10:44:13.252Z,4.37
2018-11-07T10:46:42.438Z,4.70
2018-11-07T10:49:12.150Z,4.13
2018-11-07T10:51:41.477Z,5.50
2018-11-07T10:54:11.502Z,4.90
2018-11-07T10:56:40.533Z,3.67
2018-11-07T10:59:09.846Z,4.77
2018-11-07T11:01:38.810Z,3.87
2018-11-07T11:04:09.414Z,4.05
2018-11-07T11:06:38.690Z,4.70
2018-11-07T11:09:07.621Z,4.53
2018-11-07T11:11:36.570Z,7.23
2018-11-07T11:14:05.493Z,4.57
2018-11-07T11:16:35.033Z,4.10
2018-11-07T11:19:04.470Z,4.20
2018-11-07T11:21:33.729Z,5.50
2018-11-07T11:24:03.112Z,3.80
2018-11-07T11:26:32.581Z,4.13
2018-11-07T11:29:01.838Z,5.80
2018-11-07T11:31:34.427Z,5.60
2018-11-07T11:34:03.738Z,6.00
2018-11-07T11:36:33.090Z,4.60
2018-11-07T11:39:02.555Z,4.50
2018-11-07T11:41:31.554Z,4.40
2018-11-07T11:44:07.218Z,5.90
2018-11-07T11:46:36.590Z,5.10
2018-11-07T11:49:06.229Z,5.40
2018-11-07T11:51:35.622Z,5.37
2018-11-07T11:54:04.310Z,7.27
2018-11-07T11:56:33.252Z,5.30
2018-11-07T11:59:02.838Z,4.67
2018-11-07T12:01:32.346Z,4.93
2018-11-07T12:04:01.875Z,4.70
2018-11-07T12:06:31.597Z,4.90
2018-11-07T12:09:01.079Z,4.80
2018-11-07T12:11:30.875Z,5.00
2018-11-07T12:14:00.333Z,4.20
2018-11-07T12:16:29.713Z,4.40
2018-11-07T12:18:58.988Z,4.27
2018-11-07T12:21:28.277Z,4.30
2018-11-07T12:23:57.790Z,3.50
2018-11-07T12:26:27.043Z,3.90
2018-11-07T12:28:56.314Z,4.13
2018-11-07T12:31:25.861Z,4.30
2018-11-07T12:34:02.533Z,3.80
2018-11-07T12:36:33.764Z,3.70
2018-11-07T12:39:02.703Z,4.80
2018-11-07T12:41:32.346Z,3.17
2018-11-07T12:44:01.790Z,3.67
2018-11-07T12:46:31.245Z,3.20
2018-11-07T12:49:00.385Z,3.73
2018-11-07T12:51:29.760Z,3.70
2018-11-07T12:53:59.103Z,3.60
2018-11-07T12:56:28.698Z,3.40
2018-11-07T12:58:57.967Z,3.67
2018-11-07T13:01:27.235Z,3.50
2018-11-07T13:03:56.719Z,3.50
2018-11-07T13:06:25.973Z,3.60
2018-11-07T13:08:54.918Z,4.10
2018-11-07T13:11:24.193Z,3.47
2018-11-07T13:13:53.869Z,3.50
2018-11-07T13:16:23.144Z,3.23
2018-11-07T13:18:52.454Z,3.73
2018-11-07T13:21:22.041Z,3.83
2018-11-07T13:23:51.614Z,3.33
2018-11-07T13:26:21.166Z,3.20
2018-11-07T13:28:50.502Z,4.00
2018-11-07T13:31:20.196Z,3.30
2018-11-07T13:33:49.757Z,3.90
2018-11-07T13:36:19.302Z,3.60
2018-11-07T13:38:49.524Z,3.17
2018-11-07T13:41:19.106Z,6.67
2018-11-07T13:43:48.370Z,4.73
2018-11-07T13:46:17.923Z,3.55
2018-11-07T13:48:47.196Z,4.20
2018-11-07T13:51:16.937Z,4.17
2018-11-07T13:53:46.213Z,4.27
2018-11-07T13:56:16.009Z,4.50
2018-11-07T13:58:45.285Z,4.20
2018-11-07T14:01:14.273Z,4.17
2018-11-07T14:03:43.494Z,3.87
2018-11-07T14:06:13.150Z,3.67
2018-11-07T14:08:42.086Z,5.10
2018-11-07T14:11:11.629Z,5.60
2018-11-07T14:13:40.773Z,5.20
2018-11-07T14:16:10.567Z,5.00
2018-11-07T14:18:39.962Z,5.00
2018-11-07T14:21:09.945Z,4.50
2018-11-07T14:23:39.221Z,5.30
2018-11-07T14:26:08.495Z,5.70
2018-11-07T14:28:37.769Z,4.40
2018-11-07T14:31:06.780Z,3.97
2018-11-07T14:33:35.707Z,5.50
2018-11-07T14:36:04.722Z,4.60
2018-11-07T14:38:34.399Z,5.83
2018-11-07T14:41:04.119Z,5.00
2018-11-07T14:43:33.889Z,5.67
2018-11-07T14:46:03.202Z,5.63
2018-11-07T14:48:32.974Z,5.33
2018-11-07T14:51:02.453Z,5.60
2018-11-07T14:53:31.980Z,5.33
2018-11-07T14:56:01.274Z,5.00
2018-11-07T14:58:30.521Z,4.97
2018-11-07T15:01:00.118Z,5.80
2018-11-07T15:03:29.382Z,5.23
2018-11-07T15:05:58.756Z,5.53
2018-11-07T15:08:28.263Z,7.00
2018-11-07T15:10:57.660Z,5.90
2018-11-07T15:13:26.918Z,5.15
2018-11-07T15:15:56.177Z,5.30
2018-11-07T15:18:35.590Z,5.27
2018-11-07T15:21:04.954Z,5.10
2018-11-07T15:23:34.061Z,5.50
2018-11-07T15:26:04.293Z,5.80
2018-11-07T15:28:33.588Z,4.90
2018-11-07T15:31:03.178Z,5.60
2018-11-07T15:33:32.442Z,5.43
2018-11-07T15:36:02.336Z,5.70
2018-11-07T15:38:31.759Z,12.33
2018-11-07T15:41:01.328Z,22.67
2018-11-07T15:43:31.200Z,22.80
2018-11-07T15:46:00.590Z,7.37
2018-11-07T15:48:29.995Z,12.73
2018-11-07T15:51:04.762Z,6.40
2018-11-07T15:53:34.138Z,6.73
2018-11-07T15:56:03.393Z,6.60
2018-11-07T15:58:32.683Z,6.87
2018-11-07T16:01:01.972Z,9.70
2018-11-07T16:03:31.561Z,6.20
2018-11-07T16:06:01.482Z,6.75
2018-11-07T16:08:30.955Z,7.73
2018-11-07T16:11:00.398Z,8.73
2018-11-07T16:13:29.727Z,6.33
2018-11-07T16:15:59.283Z,10.00
2018-11-07T16:18:28.556Z,7.10
2018-11-07T16:20:58.083Z,7.93
2018-11-07T16:23:27.913Z,6.53
2018-11-07T16:25:57.595Z,6.87
2018-11-07T16:28:26.756Z,7.00
2018-11-07T16:30:56.254Z,6.50
2018-11-07T16:33:25.779Z,6.93
2018-11-07T16:35:55.457Z,9.18
2018-11-07T16:38:25.494Z,6.42
2018-11-07T16:40:54.846Z,6.97
2018-11-07T16:43:25.122Z,6.40
2018-11-07T16:46:00.644Z,6.37
2018-11-07T16:48:32.330Z,6.80
2018-11-07T16:51:01.713Z,6.50
2018-11-07T16:53:31.278Z,6.57
2018-11-07T16:56:00.681Z,5.90
2018-11-07T16:58:30.438Z,6.07
2018-11-07T17:00:59.707Z,6.30
2018-11-07T17:03:29.297Z,6.92
2018-11-07T17:05:58.556Z,9.73
2018-11-07T17:08:28.133Z,6.25
2018-11-07T17:10:57.515Z,6.23
2018-11-07T17:13:27.067Z,6.50
2018-11-07T17:15:56.525Z,7.60
2018-11-07T17:18:26.309Z,8.67
2018-11-07T17:20:55.637Z,5.70
2018-11-07T17:23:25.654Z,6.55
2018-11-07T17:25:54.910Z,6.17
2018-11-07T17:28:24.134Z,6.87
2018-11-07T17:30:53.182Z,6.30
2018-11-07T17:33:22.693Z,7.20
2018-11-07T17:35:52.253Z,7.15
2018-11-07T17:38:21.704Z,6.65
2018-11-07T17:40:51.478Z,6.45
2018-11-07T17:43:20.739Z,6.93
2018-11-07T17:45:50.313Z,6.10
2018-11-07T17:48:19.961Z,6.28
2018-11-07T17:50:49.553Z,5.63
2018-11-07T17:53:19.097Z,7.87
2018-11-07T17:55:48.569Z,5.50
2018-11-07T17:58:17.870Z,5.80
2018-11-07T18:00:47.463Z,5.50
2018-11-07T18:03:16.805Z,6.13
2018-11-07T18:05:46.106Z,8.70
2018-11-07T18:08:15.658Z,8.50
2018-11-07T18:10:44.925Z,5.37
2018-11-07T18:13:14.511Z,6.12
2018-11-07T18:15:43.769Z,6.67
2018-11-07T18:18:13.033Z,6.13
2018-11-07T18:20:42.510Z,6.37
2018-11-07T18:23:24.089Z,7.67
2018-11-07T18:26:05.644Z,6.53
2018-11-07T18:28:45.150Z,4.77
2018-11-07T18:31:14.733Z,6.10
2018-11-07T18:33:44.038Z,5.73
2018-11-07T18:36:13.595Z,5.93
2018-11-07T18:38:42.698Z,5.53
2018-11-07T18:41:12.076Z,6.80
2018-11-07T18:43:41.723Z,5.40
2018-11-07T18:46:11.297Z,6.90
2018-11-07T18:48:41.450Z,8.07
2018-11-07T18:51:11.138Z,5.83
2018-11-07T18:53:40.776Z,6.57
2018-11-07T18:56:10.965Z,5.78
2018-11-07T18:58:40.317Z,5.17
2018-11-07T19:01:10.869Z,6.95
2018-11-07T19:03:40.170Z,7.40
2018-11-07T19:06:10.802Z,8.03
2018-11-07T19:08:40.098Z,7.60
2018-11-07T19:11:10.993Z,5.16
2018-11-07T19:13:42.050Z,7.73
2018-11-07T19:16:11.306Z,7.40
2018-11-07T19:18:40.766Z,6.60
2018-11-07T19:21:10.997Z,5.72
2018-11-07T19:23:40.819Z,7.42
2018-11-07T19:26:11.393Z,8.23
2018-11-07T19:28:40.879Z,6.80
2018-11-07T19:31:11.406Z,9.18
2018-11-07T19:33:40.886Z,9.63
2018-11-07T19:36:11.047Z,5.10
2018-11-07T19:38:40.078Z,7.77
2018-11-07T19:41:10.714Z,6.45
2018-11-07T19:43:40.027Z,6.10
2018-11-07T19:46:09.289Z,7.03
2018-11-07T19:48:38.730Z,4.93
2018-11-07T19:51:07.798Z,5.27
2018-11-07T19:53:37.103Z,5.10
2018-11-07T19:56:06.821Z,6.97
2018-11-07T19:58:35.790Z,7.63
2018-11-07T20:01:04.492Z,5.47
2018-11-07T20:03:33.982Z,6.33
2018-11-07T20:06:03.305Z,5.20
2018-11-07T20:08:32.990Z,10.23
2018-11-07T20:11:02.257Z,7.30
2018-11-07T20:13:31.845Z,4.72
2018-11-07T20:16:04.589Z,6.60
2018-11-07T20:18:33.849Z,5.63
2018-11-07T20:21:03.149Z,6.13
2018-11-07T20:23:32.607Z,3.80
2018-11-07T20:28:38.233Z,5.00
2018-11-07T20:31:07.866Z,5.20
2018-11-07T20:33:37.312Z,4.13
2018-11-07T20:36:06.942Z,6.08
2018-11-07T20:38:36.370Z,8.80
2018-11-07T20:41:05.585Z,5.50
2018-11-07T20:43:35.027Z,5.43
2018-11-07T20:46:03.955Z,5.87
2018-11-07T20:48:33.449Z,4.77
2018-11-07T20:51:03.082Z,4.37
2018-11-07T20:53:32.394Z,5.20
2018-11-07T20:56:01.427Z,5.00
2018-11-07T20:58:30.789Z,5.25
2018-11-07T21:01:00.088Z,5.07
2018-11-07T21:03:31.038Z,4.80
2018-11-07T21:06:00.306Z,4.40
2018-11-07T21:08:29.693Z,4.33
2018-11-07T21:10:58.812Z,4.57
2018-11-07T21:13:28.266Z,4.83
2018-11-07T21:15:58.162Z,4.65
2018-11-07T21:18:27.435Z,4.13
2018-11-07T21:20:57.001Z,4.63
2018-11-07T21:23:26.386Z,3.40
2018-11-07T21:25:55.938Z,4.83
2018-11-07T21:28:25.298Z,3.87
2018-11-07T21:30:54.628Z,3.80
2018-11-07T21:33:24.010Z,4.28
2018-11-07T21:35:53.293Z,4.67
2018-11-07T21:38:22.614Z,4.13
2018-11-07T21:40:51.900Z,3.43
2018-11-07T21:43:21.162Z,3.30
2018-11-07T21:45:50.429Z,3.87
2018-11-07T21:48:20.326Z,3.33
2018-11-07T21:50:49.880Z,4.55
2018-11-07T21:53:20.877Z,3.70
2018-11-07T21:55:50.206Z,4.40
2018-11-07T21:58:19.498Z,3.50
2018-11-07T22:00:49.050Z,3.92
2018-11-07T22:03:18.334Z,3.60
2018-11-07T22:05:47.602Z,3.23
2018-11-07T22:08:17.354Z,3.35
2018-11-07T22:10:46.954Z,3.83
2018-11-07T22:13:16.519Z,4.17
2018-11-07T22:15:45.811Z,3.90
2018-11-07T22:18:15.424Z,3.43
2018-11-07T22:20:45.161Z,5.58
2018-11-07T22:23:14.812Z,4.10
2018-11-07T22:25:45.110Z,5.67
2018-11-07T22:30:56.138Z,6.70
2018-11-07T22:33:25.788Z,4.23
2018-11-07T22:35:55.404Z,4.20
2018-11-07T22:38:24.932Z,4.28
2018-11-07T22:40:54.336Z,4.57
2018-11-07T22:43:23.620Z,4.77
2018-11-07T22:45:53.229Z,4.55
2018-11-07T22:48:22.678Z,3.97
2018-11-07T22:50:52.392Z,3.73
2018-11-07T22:53:22.199Z,7.20
2018-11-07T22:55:52.482Z,3.70
2018-11-07T22:58:34.294Z,4.27
2018-11-07T23:01:03.489Z,3.70
2018-11-07T23:03:35.806Z,5.10
2018-11-07T23:06:05.008Z,4.20
2018-11-07T23:08:34.285Z,4.17
2018-11-07T23:11:03.572Z,5.37
2018-11-07T23:13:32.843Z,6.33
2018-11-07T23:16:02.143Z,4.80
2018-11-07T23:18:31.646Z,5.80
2018-11-07T23:21:01.199Z,4.27
2018-11-07T23:23:30.479Z,4.30
2018-11-07T23:26:00.105Z,4.20
2018-11-07T23:28:29.557Z,4.07
2018-11-07T23:30:58.822Z,6.27
2018-11-07T23:33:28.631Z,4.17
2018-11-07T23:35:58.181Z,4.50
2018-11-07T23:38:28.210Z,3.60
2018-11-07T23:40:57.488Z,4.07
2018-11-07T23:43:26.754Z,3.77
2018-11-07T23:45:56.380Z,3.52
2018-11-07T23:48:25.802Z,4.00
2018-11-07T23:50:55.108Z,4.10
2018-11-07T23:53:24.903Z,4.70
2018-11-07T23:55:54.519Z,3.70
2018-11-07T23:58:23.819Z,4.30
